Aguaray, Argentina
Current Conditions -  °F | °C
As of 11:00 AM on Sunday 21 Dec 2014 (Local Time) from SLTJ Reporting Station
Scattered Clouds Scattered Clouds  
Wind Chill: 79°   Ceiling: Unl
Heat Index: 80°   Visibility: 6mi
Dew Point: 63°   Wind: 6mph
Humidity: 57%   Direction: 130°SE
Pressure: 29.91"   Gusts: NA
Location:  22.27°S, 63.73°W
Report Text: SLTJ 211400Z 13005KT 9999 FEW033 SCT200 26/17 Q1013
Loading
Personal Weather Stations






























Interactive Weather Map New forecast layout! Learn more

10-Day Weather Forecast

Advertisements
Track Severe Weather on mobile